createdAt,value
2023-11-15T00:02:00.980Z,3.75
2023-11-15T00:05:04.566Z,2.95
2023-11-15T00:08:07.524Z,3.13
2023-11-15T00:11:11.585Z,2.72
2023-11-15T00:14:13.875Z,2.92
2023-11-15T00:17:16.195Z,2.65
2023-11-15T00:20:21.768Z,2.92
2023-11-15T00:23:24.772Z,3.08
2023-11-15T00:26:30.405Z,2.78
2023-11-15T00:29:34.250Z,2.40
2023-11-15T00:32:36.682Z,2.72
2023-11-15T00:35:39.173Z,2.70
2023-11-15T00:38:41.838Z,2.58
2023-11-15T00:41:46.728Z,2.15
2023-11-15T00:44:49.360Z,2.72
2023-11-15T00:47:52.552Z,3.42
2023-11-15T00:50:54.954Z,2.80
2023-11-15T00:53:57.440Z,2.78
2023-11-15T00:57:01.124Z,3.67
2023-11-15T01:00:08.390Z,3.35
2023-11-15T01:03:13.205Z,2.25
2023-11-15T01:06:15.526Z,2.22
2023-11-15T01:09:17.958Z,1.98
2023-11-15T01:12:21.861Z,2.72
2023-11-15T01:15:25.331Z,1.80
2023-11-15T01:18:27.800Z,2.92
2023-11-15T01:21:30.226Z,4.15
2023-11-15T01:24:32.551Z,2.10
2023-11-15T01:27:36.858Z,2.03
2023-11-15T01:30:39.620Z,1.83
2023-11-15T01:33:43.282Z,2.03
2023-11-15T01:36:46.428Z,1.90
2023-11-15T01:39:49.244Z,1.52
2023-11-15T01:42:52.872Z,1.75
2023-11-15T01:45:56.243Z,1.90
2023-11-15T01:49:00.862Z,1.85
2023-11-15T01:52:04.826Z,1.80
2023-11-15T01:55:09.163Z,3.55
2023-11-15T01:58:12.921Z,2.83
2023-11-15T02:01:16.581Z,2.47
2023-11-15T02:04:19.007Z,2.20
2023-11-15T02:07:21.219Z,1.83
2023-11-15T02:10:23.854Z,2.13
2023-11-15T02:13:28.468Z,2.33
2023-11-15T02:16:30.823Z,1.92
2023-11-15T02:19:33.965Z,2.35
2023-11-15T02:22:43.997Z,2.25
2023-11-15T02:25:47.694Z,1.90
2023-11-15T02:28:50.169Z,2.15
2023-11-15T02:31:52.570Z,3.90
2023-11-15T02:34:56.118Z,1.90
2023-11-15T02:37:59.479Z,2.28
2023-11-15T02:41:03.351Z,1.65
2023-11-15T02:44:07.200Z,1.80
2023-11-15T02:47:09.697Z,1.77
2023-11-15T02:50:12.364Z,1.92
2023-11-15T02:53:14.913Z,2.47
2023-11-15T02:56:19.528Z,2.35
2023-11-15T02:59:21.951Z,2.58
2023-11-15T03:02:24.292Z,2.00
2023-11-15T03:05:27.444Z,2.28
2023-11-15T03:08:31.808Z,3.28
2023-11-15T03:11:35.962Z,1.83
2023-11-15T03:14:38.382Z,2.13
2023-11-15T03:17:41.643Z,1.52
2023-11-15T03:20:44.236Z,1.83
2023-11-15T03:23:46.682Z,1.58
2023-11-15T03:26:50.627Z,1.55
2023-11-15T03:29:52.986Z,2.28
2023-11-15T03:32:55.365Z,1.40
2023-11-15T03:35:58.259Z,1.40
2023-11-15T03:39:00.835Z,2.53
2023-11-15T03:42:05.744Z,1.55
2023-11-15T03:45:10.744Z,2.13
2023-11-15T03:48:13.428Z,1.63
2023-11-15T03:51:15.938Z,1.67
2023-11-15T03:54:18.249Z,2.17
2023-11-15T03:57:22.317Z,1.88
2023-11-15T04:00:24.893Z,1.83
2023-11-15T04:03:27.297Z,1.60
2023-11-15T04:06:29.650Z,1.35
2023-11-15T04:09:33.014Z,1.40
2023-11-15T04:12:38.394Z,1.50
2023-11-15T04:15:40.643Z,1.80
2023-11-15T04:18:44.576Z,2.10
2023-11-15T04:21:49.084Z,1.70
2023-11-15T04:24:54.306Z,1.45
2023-11-15T04:27:59.990Z,1.40
2023-11-15T04:31:04.367Z,1.80
2023-11-15T04:34:06.707Z,1.50
2023-11-15T04:37:10.448Z,1.88
2023-11-15T04:40:13.077Z,1.55
2023-11-15T04:43:17.726Z,2.30
2023-11-15T04:46:20.692Z,1.20
2023-11-15T04:49:23.143Z,1.60
2023-11-15T04:52:26.613Z,1.30
2023-11-15T04:55:28.987Z,2.72
2023-11-15T04:58:32.606Z,1.17
2023-11-15T05:01:35.456Z,1.73
2023-11-15T05:04:39.015Z,1.40
2023-11-15T05:07:41.321Z,1.25
2023-11-15T05:10:43.548Z,1.63
2023-11-15T05:13:47.374Z,1.25
2023-11-15T05:16:49.647Z,1.40
2023-11-15T05:19:51.991Z,2.33
2023-11-15T05:22:55.979Z,2.03
2023-11-15T05:25:58.376Z,1.60
2023-11-15T05:29:03.035Z,1.20
2023-11-15T05:32:06.070Z,1.52
2023-11-15T05:35:11.171Z,1.60
2023-11-15T05:38:14.302Z,2.35
2023-11-15T05:41:16.515Z,2.20
2023-11-15T05:44:20.356Z,3.47
2023-11-15T05:47:26.376Z,2.95
2023-11-15T05:50:28.602Z,1.73
2023-11-15T05:53:30.924Z,1.75
2023-11-15T05:56:33.271Z,2.13
2023-11-15T05:59:36.911Z,1.95
2023-11-15T06:02:41.434Z,2.05
2023-11-15T06:05:43.972Z,1.63
2023-11-15T06:08:46.430Z,2.22
2023-11-15T06:11:48.705Z,4.00
2023-11-15T06:14:53.563Z,1.83
2023-11-15T06:17:57.738Z,1.88
2023-11-15T06:21:00.129Z,1.85
2023-11-15T06:24:02.672Z,2.53
2023-11-15T06:27:05.037Z,2.03
2023-11-15T06:30:10.650Z,2.47
2023-11-15T06:33:13.501Z,2.42
2023-11-15T06:36:18.683Z,2.55
2023-11-15T06:39:22.170Z,2.30
2023-11-15T06:42:24.570Z,2.17
2023-11-15T06:45:28.241Z,2.50
2023-11-15T06:48:30.767Z,2.08
2023-11-15T06:51:33.064Z,2.80
2023-11-15T06:54:35.376Z,2.47
2023-11-15T06:57:38.658Z,2.75
2023-11-15T07:00:45.780Z,2.25
2023-11-15T07:03:48.988Z,2.10
2023-11-15T07:06:51.751Z,3.13
2023-11-15T07:09:56.054Z,2.17
2023-11-15T07:13:01.370Z,2.60
2023-11-15T07:16:07.592Z,1.98
2023-11-15T07:19:10.082Z,2.65
2023-11-15T07:22:12.597Z,2.30
2023-11-15T07:25:21.362Z,2.42
2023-11-15T07:28:24.639Z,2.25
2023-11-15T07:31:29.399Z,3.25
2023-11-15T07:34:33.857Z,3.40
2023-11-15T07:37:36.211Z,1.85
2023-11-15T07:40:38.742Z,2.78
2023-11-15T07:43:42.417Z,1.80
2023-11-15T07:46:47.654Z,2.67
2023-11-15T07:49:50.181Z,2.08
2023-11-15T07:52:53.166Z,2.03
2023-11-15T07:55:55.734Z,2.72
2023-11-15T07:59:01.333Z,1.83
2023-11-15T08:02:05.226Z,2.38
2023-11-15T08:05:08.318Z,1.50
2023-11-15T08:08:10.757Z,2.03
2023-11-15T08:11:13.242Z,1.92
2023-11-15T08:14:15.497Z,1.25
2023-11-15T08:17:19.202Z,1.20
2023-11-15T08:20:22.046Z,1.13
2023-11-15T08:23:24.600Z,2.20
2023-11-15T08:26:27.794Z,1.00
2023-11-15T08:29:30.109Z,0.80
2023-11-15T08:32:34.357Z,2.13
2023-11-15T08:35:36.791Z,1.10
2023-11-15T08:38:39.296Z,1.23
2023-11-15T08:41:42.663Z,0.90
2023-11-15T08:44:45.583Z,1.02
2023-11-15T08:47:49.465Z,2.08
2023-11-15T08:50:52.889Z,1.27
2023-11-15T08:53:55.231Z,0.90
2023-11-15T08:56:57.524Z,1.50
2023-11-15T09:00:00.110Z,1.17
2023-11-15T09:03:07.763Z,1.23
2023-11-15T09:06:12.751Z,0.70
2023-11-15T09:09:16.161Z,1.30
2023-11-15T09:12:19.343Z,0.82
2023-11-15T09:15:22.179Z,1.10
2023-11-15T09:18:25.800Z,0.82
2023-11-15T09:21:28.102Z,1.00
2023-11-15T09:24:30.467Z,1.42
2023-11-15T09:27:33.709Z,1.48
2023-11-15T09:30:36.550Z,1.13
2023-11-15T09:33:40.568Z,1.30
2023-11-15T09:36:43.577Z,0.80
2023-11-15T09:39:46.559Z,1.10
2023-11-15T09:42:52.782Z,1.20
2023-11-15T09:45:59.637Z,1.08
2023-11-15T09:49:07.858Z,0.85
2023-11-15T09:52:16.038Z,1.20
2023-11-15T09:55:19.329Z,0.75
2023-11-15T09:58:22.980Z,0.80
2023-11-15T10:01:25.646Z,0.80
2023-11-15T10:04:29.986Z,0.90
2023-11-15T10:07:32.329Z,0.80
2023-11-15T10:10:34.680Z,1.00
2023-11-15T10:13:39.002Z,0.75
2023-11-15T10:16:49.421Z,1.00
2023-11-15T10:19:54.499Z,0.83
2023-11-15T10:22:58.616Z,0.90
2023-11-15T10:26:02.131Z,1.05
2023-11-15T10:29:13.726Z,0.70
2023-11-15T10:32:20.804Z,1.23
2023-11-15T10:35:32.717Z,1.33
2023-11-15T10:38:35.420Z,1.05
2023-11-15T10:41:39.603Z,1.00
2023-11-15T10:44:49.303Z,1.38
2023-11-15T10:47:58.302Z,1.00
2023-11-15T10:51:04.312Z,1.95
2023-11-15T10:54:07.928Z,1.67
2023-11-15T10:57:11.399Z,1.17
2023-11-15T11:00:21.416Z,1.10
2023-11-15T11:03:25.717Z,0.93
2023-11-15T11:06:36.064Z,0.95
2023-11-15T11:09:47.279Z,0.80
2023-11-15T11:12:52.397Z,0.88
2023-11-15T11:15:55.526Z,1.10
2023-11-15T11:19:12.710Z,0.80
2023-11-15T11:22:19.023Z,1.30
2023-11-15T11:25:22.451Z,1.00
2023-11-15T11:28:25.145Z,0.95
2023-11-15T11:31:28.966Z,1.42
2023-11-15T11:34:31.350Z,1.17
2023-11-15T11:37:44.607Z,1.27
2023-11-15T11:40:48.814Z,1.10
2023-11-15T11:43:56.817Z,0.90
2023-11-15T11:47:03.369Z,2.15
2023-11-15T11:50:10.616Z,1.25
2023-11-15T11:53:15.913Z,1.13
2023-11-15T11:56:18.275Z,0.98
2023-11-15T11:59:20.613Z,0.73
2023-11-15T12:02:32.915Z,0.90
2023-11-15T12:05:35.139Z,1.27
2023-11-15T12:08:40.477Z,1.40
2023-11-15T12:11:45.984Z,1.55
2023-11-15T12:14:50.766Z,1.15
2023-11-15T12:17:54.458Z,1.23
2023-11-15T12:20:58.542Z,1.55
2023-11-15T12:24:11.329Z,1.88
2023-11-15T12:27:14.682Z,0.80
2023-11-15T12:30:17.150Z,1.20
2023-11-15T12:33:19.698Z,0.90
2023-11-15T12:36:22.546Z,1.00
2023-11-15T12:39:35.606Z,1.33
2023-11-15T12:42:38.061Z,1.20
2023-11-15T12:45:40.466Z,1.63
2023-11-15T12:48:42.796Z,1.10
2023-11-15T12:51:46.279Z,0.80
2023-11-15T12:54:56.465Z,1.33
2023-11-15T12:57:59.541Z,1.00
2023-11-15T13:01:03.417Z,1.42
2023-11-15T13:04:06.110Z,1.25
2023-11-15T13:07:10.529Z,1.23
2023-11-15T13:10:15.433Z,0.70
2023-11-15T13:13:18.270Z,0.90
2023-11-15T13:16:22.123Z,0.77
2023-11-15T13:19:26.098Z,1.10
2023-11-15T13:22:31.304Z,1.08
2023-11-15T13:25:36.310Z,0.50
2023-11-15T13:28:40.653Z,0.50
2023-11-15T13:31:44.295Z,0.80
2023-11-15T13:34:48.044Z,0.65
2023-11-15T13:37:50.290Z,0.70
2023-11-15T13:40:54.034Z,0.70
2023-11-15T13:43:56.633Z,0.70
2023-11-15T13:46:59.020Z,0.60
2023-11-15T13:50:01.364Z,0.90
2023-11-15T13:53:04.547Z,0.70
2023-11-15T13:56:09.792Z,0.50
2023-11-15T13:59:12.110Z,0.82
2023-11-15T14:02:14.647Z,0.60
2023-11-15T14:05:18.790Z,0.60
2023-11-15T14:08:21.060Z,0.70
2023-11-15T14:11:25.373Z,0.52
2023-11-15T14:14:27.951Z,1.00
2023-11-15T14:17:32.209Z,1.00
2023-11-15T14:20:36.426Z,1.58
2023-11-15T14:23:39.048Z,0.63
2023-11-15T14:26:42.783Z,1.15
2023-11-15T14:29:45.066Z,0.60
2023-11-15T14:32:48.209Z,0.80
2023-11-15T14:35:50.620Z,0.70
2023-11-15T14:38:54.622Z,1.33
2023-11-15T14:42:00.260Z,0.77
2023-11-15T14:45:02.796Z,1.13
2023-11-15T14:48:06.728Z,0.88
2023-11-15T14:51:09.323Z,0.50
2023-11-15T14:54:11.757Z,0.63
2023-11-15T14:57:15.928Z,0.68
2023-11-15T15:00:21.647Z,0.50
2023-11-15T15:03:27.950Z,0.70
2023-11-15T15:06:30.423Z,0.65
2023-11-15T15:09:34.814Z,0.60
2023-11-15T15:12:38.710Z,1.80
2023-11-15T15:15:41.146Z,1.23
2023-11-15T15:18:43.482Z,0.68
2023-11-15T15:21:46.762Z,0.73
2023-11-15T15:24:50.050Z,1.05
2023-11-15T15:27:56.251Z,0.60
2023-11-15T15:30:58.657Z,0.90
2023-11-15T15:34:01.062Z,0.70
2023-11-15T15:37:04.889Z,0.70
2023-11-15T15:40:12.717Z,2.08
2023-11-15T15:43:16.707Z,1.55
2023-11-15T15:46:18.994Z,0.73
2023-11-15T15:49:21.649Z,0.82
2023-11-15T15:52:23.926Z,0.80
2023-11-15T15:55:26.126Z,1.17
2023-11-15T15:58:29.904Z,0.90
2023-11-15T16:01:32.184Z,1.00
2023-11-15T16:04:34.547Z,0.95
2023-11-15T16:07:36.813Z,1.05
2023-11-15T16:10:39.633Z,0.80
2023-11-15T16:13:43.260Z,1.88
2023-11-15T16:16:47.846Z,0.73
2023-11-15T16:19:50.119Z,1.25
2023-11-15T16:22:52.846Z,0.60
2023-11-15T16:25:58.575Z,0.85
2023-11-15T16:29:06.703Z,0.70
2023-11-15T16:32:09.085Z,1.35
2023-11-15T16:35:11.792Z,1.17
2023-11-15T16:38:16.001Z,1.58
2023-11-15T16:41:20.884Z,1.20
2023-11-15T16:44:24.985Z,0.85
2023-11-15T16:47:27.327Z,0.80
2023-11-15T16:50:29.788Z,0.85
2023-11-15T16:53:32.082Z,0.85
2023-11-15T16:56:34.487Z,0.88
2023-11-15T16:59:38.381Z,0.73
2023-11-15T17:02:42.955Z,1.10
2023-11-15T17:05:48.933Z,1.00
2023-11-15T17:08:51.578Z,0.90
2023-11-15T17:11:54.080Z,0.90
2023-11-15T17:14:59.992Z,0.80
2023-11-15T17:18:03.155Z,1.00
2023-11-15T17:21:06.542Z,1.38
2023-11-15T17:24:09.410Z,0.90
2023-11-15T17:27:11.754Z,0.98
2023-11-15T17:30:15.734Z,1.02
2023-11-15T17:33:18.126Z,0.98
2023-11-15T17:36:21.765Z,0.82
2023-11-15T17:39:24.095Z,1.90
2023-11-15T17:42:26.456Z,1.25
2023-11-15T17:45:30.104Z,1.08
2023-11-15T17:48:32.633Z,1.58
2023-11-15T17:51:35.015Z,1.38
2023-11-15T17:54:37.620Z,1.05
2023-11-15T17:57:39.840Z,1.20
2023-11-15T18:00:43.502Z,0.90
2023-11-15T18:03:46.824Z,1.38
2023-11-15T18:06:49.327Z,0.70
2023-11-15T18:09:51.733Z,1.30
2023-11-15T18:12:55.033Z,1.40
2023-11-15T18:15:59.026Z,1.00
2023-11-15T18:19:08.874Z,1.10
2023-11-15T18:22:12.085Z,1.05
2023-11-15T18:25:20.155Z,0.70
2023-11-15T18:28:22.537Z,1.02
2023-11-15T18:31:27.444Z,0.80
2023-11-15T18:34:30.107Z,1.02
2023-11-15T18:37:33.922Z,1.65
2023-11-15T18:40:36.176Z,0.93
2023-11-15T18:43:38.691Z,1.70
2023-11-15T18:46:42.367Z,0.68
2023-11-15T18:49:44.763Z,0.75
2023-11-15T18:52:47.132Z,0.82
2023-11-15T18:55:49.437Z,1.63
2023-11-15T18:58:53.824Z,1.10
2023-11-15T19:01:58.216Z,0.82
2023-11-15T19:05:00.838Z,1.45
2023-11-15T19:08:03.664Z,2.97
2023-11-15T19:11:06.865Z,0.70
2023-11-15T19:14:10.729Z,1.00
2023-11-15T19:17:17.413Z,0.70
2023-11-15T19:20:21.117Z,0.70
2023-11-15T19:23:23.572Z,0.60
2023-11-15T19:26:26.160Z,0.93
2023-11-15T19:29:28.473Z,1.17
2023-11-15T19:32:32.220Z,1.20
2023-11-15T19:35:34.784Z,0.93
2023-11-15T19:38:37.970Z,1.17
2023-11-15T19:41:40.660Z,1.10
2023-11-15T19:44:43.130Z,1.08
2023-11-15T19:47:46.884Z,1.20
2023-11-15T19:50:49.449Z,0.90
2023-11-15T19:53:55.001Z,0.90
2023-11-15T19:56:57.455Z,1.13
2023-11-15T20:00:11.148Z,1.10
2023-11-15T20:03:22.553Z,1.15
2023-11-15T20:06:34.209Z,1.00
2023-11-15T20:09:43.257Z,1.88
2023-11-15T20:12:56.665Z,1.30
2023-11-15T20:16:13.823Z,1.45
2023-11-15T20:19:17.727Z,1.23
2023-11-15T20:22:20.485Z,1.40
2023-11-15T20:25:22.897Z,1.20
2023-11-15T20:28:33.204Z,1.30
2023-11-15T20:31:41.351Z,1.85
2023-11-15T20:34:45.523Z,1.90
2023-11-15T20:37:47.815Z,1.17
2023-11-15T20:40:50.075Z,1.08
2023-11-15T20:43:52.563Z,2.35
2023-11-15T20:46:54.914Z,1.13
2023-11-15T20:49:58.741Z,1.02
2023-11-15T20:53:01.606Z,1.08
2023-11-15T20:56:04.155Z,1.23
2023-11-15T20:59:08.861Z,1.75
2023-11-15T21:02:12.241Z,1.45
2023-11-15T21:05:16.442Z,2.17
2023-11-15T21:08:18.744Z,1.85
2023-11-15T21:11:21.400Z,1.25
2023-11-15T21:14:24.394Z,1.80
2023-11-15T21:17:27.348Z,1.30
2023-11-15T21:20:32.456Z,1.83
2023-11-15T21:23:36.150Z,1.42
2023-11-15T21:26:38.651Z,1.00
2023-11-15T21:29:42.099Z,1.30
2023-11-15T21:32:44.888Z,1.85
2023-11-15T21:35:51.098Z,1.65
2023-11-15T21:38:54.755Z,1.85
2023-11-15T21:41:57.271Z,1.38
2023-11-15T21:44:59.543Z,1.67
2023-11-15T21:48:02.427Z,1.80
2023-11-15T21:51:06.897Z,2.13
2023-11-15T21:54:09.209Z,1.65
2023-11-15T21:57:12.385Z,2.65
2023-11-15T22:00:22.487Z,1.23
2023-11-15T22:03:25.346Z,1.63
2023-11-15T22:06:29.343Z,1.77
2023-11-15T22:09:32.063Z,1.77
2023-11-15T22:12:34.394Z,2.40
2023-11-15T22:15:36.828Z,1.50
2023-11-15T22:18:40.558Z,1.83
2023-11-15T22:21:49.483Z,1.90
2023-11-15T22:24:51.934Z,2.25
2023-11-15T22:27:54.213Z,1.70
2023-11-15T22:30:56.526Z,1.70
2023-11-15T22:33:58.782Z,1.30
2023-11-15T22:37:02.439Z,1.33
2023-11-15T22:40:07.108Z,1.20
2023-11-15T22:43:09.685Z,1.35
2023-11-15T22:46:12.285Z,1.42
2023-11-15T22:49:14.559Z,2.15
2023-11-15T22:52:18.253Z,1.42
2023-11-15T22:55:21.315Z,1.00
2023-11-15T22:58:23.583Z,1.70
2023-11-15T23:01:27.573Z,1.67
2023-11-15T23:04:30.092Z,1.85
2023-11-15T23:07:34.107Z,1.30
2023-11-15T23:10:36.337Z,2.00
2023-11-15T23:13:41.308Z,2.03
2023-11-15T23:16:44.995Z,1.83
2023-11-15T23:19:50.087Z,2.08
2023-11-15T23:22:54.156Z,1.35
2023-11-15T23:25:56.833Z,1.95
2023-11-15T23:28:59.118Z,1.40
2023-11-15T23:32:03.142Z,1.70
2023-11-15T23:35:05.753Z,1.60
2023-11-15T23:38:10.708Z,1.65
2023-11-15T23:41:12.957Z,2.80
2023-11-15T23:44:15.223Z,1.27
2023-11-15T23:47:17.673Z,1.33
2023-11-15T23:50:20.409Z,1.35
2023-11-15T23:53:23.977Z,2.00
2023-11-15T23:56:26.216Z,2.35
2023-11-15T23:59:32.249Z,1.83
